sensor_id;sensor_type;location;lat;lon;timestamp;temperature;humidity
2723;DHT22;1369;53.216;10.396;2023-12-22T06:59:31;3.20;99.90
2723;DHT22;1369;53.216;10.396;2023-12-22T07:01:57;3.30;99.90
2723;DHT22;1369;53.216;10.396;2023-12-22T07:06:48;3.20;99.90
2723;DHT22;1369;53.216;10.396;2023-12-22T07:11:42;4.60;99.90
2723;DHT22;1369;53.216;10.396;2023-12-22T07:14:08;4.40;99.90
2723;DHT22;1369;53.216;10.396;2023-12-22T07:16:35;2.80;99.90
2723;DHT22;1369;53.216;10.396;2023-12-22T07:19:01;3.20;99.90
2723;DHT22;1369;53.216;10.396;2023-12-22T07:21:27;2.90;99.90
2723;DHT22;1369;53.216;10.396;2023-12-22T07:23:52;3.80;99.90
2723;DHT22;1369;53.216;10.396;2023-12-22T07:26:18;4.50;99.90
2723;DHT22;1369;53.216;10.396;2023-12-22T07:31:09;3.00;99.90
2723;DHT22;1369;53.216;10.396;2023-12-22T07:36:01;3.00;99.90
2723;DHT22;1369;53.216;10.396;2023-12-22T07:40:54;3.00;99.90
2723;DHT22;1369;53.216;10.396;2023-12-22T07:43:19;4.20;99.90
2723;DHT22;1369;53.216;10.396;2023-12-22T07:45:45;3.40;99.90
2723;DHT22;1369;53.216;10.396;2023-12-22T07:50:36;3.10;99.90
2723;DHT22;1369;53.216;10.396;2023-12-22T07:53:02;4.90;99.90
2723;DHT22;1369;53.216;10.396;2023-12-22T07:55:28;3.20;99.90
2723;DHT22;1369;53.216;10.396;2023-12-22T07:57:54;3.70;99.90
2723;DHT22;1369;53.216;10.396;2023-12-22T08:00:19;4.70;99.90
2723;DHT22;1369;53.216;10.396;2023-12-22T08:02:45;3.50;99.90
2723;DHT22;1369;53.216;10.396;2023-12-22T08:05:11;3.70;99.90
2723;DHT22;1369;53.216;10.396;2023-12-22T08:10:04;3.60;99.90
2723;DHT22;1369;53.216;10.396;2023-12-22T08:12:29;3.60;99.90
2723;DHT22;1369;53.216;10.396;2023-12-22T08:14:57;3.80;99.90
2723;DHT22;1369;53.216;10.396;2023-12-22T08:17:23;5.70;99.90
2723;DHT22;1369;53.216;10.396;2023-12-22T08:19:49;4.80;99.90
2723;DHT22;1369;53.216;10.396;2023-12-22T08:22:15;4.80;99.90
2723;DHT22;1369;53.216;10.396;2023-12-22T08:24:41;4.80;99.90
2723;DHT22;1369;53.216;10.396;2023-12-22T08:27:08;3.70;99.90
2723;DHT22;1369;53.216;10.396;2023-12-22T08:29:34;4.00;99.90
2723;DHT22;1369;53.216;10.396;2023-12-22T08:32:00;4.30;99.90
2723;DHT22;1369;53.216;10.396;2023-12-22T08:34:27;5.20;99.90
2723;DHT22;1369;53.216;10.396;2023-12-22T08:36:55;4.70;99.90
2723;DHT22;1369;53.216;10.396;2023-12-22T08:41:47;3.70;99.90
2723;DHT22;1369;53.216;10.396;2023-12-22T08:44:13;3.70;99.90
2723;DHT22;1369;53.216;10.396;2023-12-22T08:46:42;3.80;99.90
2723;DHT22;1369;53.216;10.396;2023-12-22T08:49:07;4.00;99.90
2723;DHT22;1369;53.216;10.396;2023-12-22T08:54:02;4.20;99.90
2723;DHT22;1369;53.216;10.396;2023-12-22T08:56:29;4.20;99.90
2723;DHT22;1369;53.216;10.396;2023-12-22T08:58:55;5.80;99.90
2723;DHT22;1369;53.216;10.396;2023-12-22T09:01:24;4.40;99.90
2723;DHT22;1369;53.216;10.396;2023-12-22T09:06:17;4.10;99.90
2723;DHT22;1369;53.216;10.396;2023-12-22T09:08:43;5.50;99.90
2723;DHT22;1369;53.216;10.396;2023-12-22T09:11:12;3.90;99.90
2723;DHT22;1369;53.216;10.396;2023-12-22T09:13:38;3.90;99.90
2723;DHT22;1369;53.216;10.396;2023-12-22T09:16:04;4.20;99.90
2723;DHT22;1369;53.216;10.396;2023-12-22T09:18:31;3.70;99.90
2723;DHT22;1369;53.216;10.396;2023-12-22T09:20:57;3.90;99.90
2723;DHT22;1369;53.216;10.396;2023-12-22T09:23:23;4.00;99.90
2723;DHT22;1369;53.216;10.396;2023-12-22T09:25:49;4.10;99.90
2723;DHT22;1369;53.216;10.396;2023-12-22T09:28:15;4.10;99.90
2723;DHT22;1369;53.216;10.396;2023-12-22T09:30:40;4.10;99.90
2723;DHT22;1369;53.216;10.396;2023-12-22T09:33:10;4.10;99.90
2723;DHT22;1369;53.216;10.396;2023-12-22T09:35:36;4.20;99.90
2723;DHT22;1369;53.216;10.396;2023-12-22T09:38:02;4.20;99.90
2723;DHT22;1369;53.216;10.396;2023-12-22T09:40:28;4.20;99.90
2723;DHT22;1369;53.216;10.396;2023-12-22T09:42:55;4.20;99.90
2723;DHT22;1369;53.216;10.396;2023-12-22T09:45:21;4.20;99.90
2723;DHT22;1369;53.216;10.396;2023-12-22T09:47:48;4.30;99.90
2723;DHT22;1369;53.216;10.396;2023-12-22T09:50:15;4.40;99.90
2723;DHT22;1369;53.216;10.396;2023-12-22T09:52:42;4.40;99.90
2723;DHT22;1369;53.216;10.396;2023-12-22T09:55:09;4.40;99.90
2723;DHT22;1369;53.216;10.396;2023-12-22T09:57:37;4.30;99.90
2723;DHT22;1369;53.216;10.396;2023-12-22T10:00:08;4.40;99.90
2723;DHT22;1369;53.216;10.396;2023-12-22T10:02:34;4.50;99.90
2723;DHT22;1369;53.216;10.396;2023-12-22T10:05:01;4.60;99.90
2723;DHT22;1369;53.216;10.396;2023-12-22T10:07:28;4.60;99.90
2723;DHT22;1369;53.216;10.396;2023-12-22T10:09:54;4.60;99.90
2723;DHT22;1369;53.216;10.396;2023-12-22T10:12:21;4.60;99.90
2723;DHT22;1369;53.216;10.396;2023-12-22T10:14:48;4.50;99.90
2723;DHT22;1369;53.216;10.396;2023-12-22T10:17:17;4.40;99.90
2723;DHT22;1369;53.216;10.396;2023-12-22T10:19:43;4.50;99.90
2723;DHT22;1369;53.216;10.396;2023-12-22T10:22:08;4.50;99.90
2723;DHT22;1369;53.216;10.396;2023-12-22T10:24:39;4.70;99.90
2723;DHT22;1369;53.216;10.396;2023-12-22T10:27:05;4.80;99.90
2723;DHT22;1369;53.216;10.396;2023-12-22T10:29:31;5.00;99.90
2723;DHT22;1369;53.216;10.396;2023-12-22T10:32:00;5.20;99.90
2723;DHT22;1369;53.216;10.396;2023-12-22T10:34:26;5.40;99.90
2723;DHT22;1369;53.216;10.396;2023-12-22T10:36:52;5.50;99.90
2723;DHT22;1369;53.216;10.396;2023-12-22T10:39:17;5.50;99.90
2723;DHT22;1369;53.216;10.396;2023-12-22T10:41:44;5.40;99.90
2723;DHT22;1369;53.216;10.396;2023-12-22T10:44:10;5.40;99.90
2723;DHT22;1369;53.216;10.396;2023-12-22T10:46:35;5.40;99.90
2723;DHT22;1369;53.216;10.396;2023-12-22T10:49:02;5.30;99.90
2723;DHT22;1369;53.216;10.396;2023-12-22T10:51:28;5.30;99.90
2723;DHT22;1369;53.216;10.396;2023-12-22T10:53:58;5.20;99.90
2723;DHT22;1369;53.216;10.396;2023-12-22T10:56:24;5.20;99.90
2723;DHT22;1369;53.216;10.396;2023-12-22T10:58:51;5.20;99.90
2723;DHT22;1369;53.216;10.396;2023-12-22T11:01:21;5.20;99.90
2723;DHT22;1369;53.216;10.396;2023-12-22T11:03:50;5.20;99.90
2723;DHT22;1369;53.216;10.396;2023-12-22T11:06:17;5.30;99.90
2723;DHT22;1369;53.216;10.396;2023-12-22T11:08:44;5.20;99.90
2723;DHT22;1369;53.216;10.396;2023-12-22T11:11:35;5.20;99.90
2723;DHT22;1369;53.216;10.396;2023-12-22T11:14:02;5.10;99.90
2723;DHT22;1369;53.216;10.396;2023-12-22T11:16:28;5.00;99.90
2723;DHT22;1369;53.216;10.396;2023-12-22T11:18:55;4.90;99.90
2723;DHT22;1369;53.216;10.396;2023-12-22T11:21:24;4.80;99.90
2723;DHT22;1369;53.216;10.396;2023-12-22T11:23:51;4.70;99.90
2723;DHT22;1369;53.216;10.396;2023-12-22T11:26:18;4.80;99.90
2723;DHT22;1369;53.216;10.396;2023-12-22T11:28:48;5.00;99.90
2723;DHT22;1369;53.216;10.396;2023-12-22T11:31:14;5.20;99.90
2723;DHT22;1369;53.216;10.396;2023-12-22T11:33:44;5.40;99.90
2723;DHT22;1369;53.216;10.396;2023-12-22T11:36:12;5.30;99.90
2723;DHT22;1369;53.216;10.396;2023-12-22T11:38:42;5.20;99.90
2723;DHT22;1369;53.216;10.396;2023-12-22T11:41:11;5.20;99.90
2723;DHT22;1369;53.216;10.396;2023-12-22T11:43:39;5.20;99.90
2723;DHT22;1369;53.216;10.396;2023-12-22T11:46:05;5.20;99.90
2723;DHT22;1369;53.216;10.396;2023-12-22T11:48:31;5.10;99.90
2723;DHT22;1369;53.216;10.396;2023-12-22T11:50:58;5.00;99.90
2723;DHT22;1369;53.216;10.396;2023-12-22T11:53:25;4.90;99.90
2723;DHT22;1369;53.216;10.396;2023-12-22T11:56:08;4.90;99.90
2723;DHT22;1369;53.216;10.396;2023-12-22T12:01:07;4.70;99.90
2723;DHT22;1369;53.216;10.396;2023-12-22T12:03:36;4.70;99.90
2723;DHT22;1369;53.216;10.396;2023-12-22T12:06:30;4.60;99.90
2723;DHT22;1369;53.216;10.396;2023-12-22T12:08:57;4.60;99.90
2723;DHT22;1369;53.216;10.396;2023-12-22T12:11:23;4.60;99.90
2723;DHT22;1369;53.216;10.396;2023-12-22T12:13:50;4.60;99.90
2723;DHT22;1369;53.216;10.396;2023-12-22T12:16:20;4.60;99.90
2723;DHT22;1369;53.216;10.396;2023-12-22T12:18:50;4.70;99.90
2723;DHT22;1369;53.216;10.396;2023-12-22T12:21:16;4.70;99.90
2723;DHT22;1369;53.216;10.396;2023-12-22T12:23:42;4.80;99.90
2723;DHT22;1369;53.216;10.396;2023-12-22T12:26:08;4.80;99.90
2723;DHT22;1369;53.216;10.396;2023-12-22T12:28:35;4.80;99.90
2723;DHT22;1369;53.216;10.396;2023-12-22T12:31:05;4.80;99.90
2723;DHT22;1369;53.216;10.396;2023-12-22T12:33:31;4.80;99.90
2723;DHT22;1369;53.216;10.396;2023-12-22T12:35:59;4.80;99.90
2723;DHT22;1369;53.216;10.396;2023-12-22T12:38:53;4.80;99.90
2723;DHT22;1369;53.216;10.396;2023-12-22T12:41:29;4.80;99.90
2723;DHT22;1369;53.216;10.396;2023-12-22T12:43:56;4.90;99.90
2723;DHT22;1369;53.216;10.396;2023-12-22T12:46:23;5.00;99.90
2723;DHT22;1369;53.216;10.396;2023-12-22T12:48:57;5.00;99.90
2723;DHT22;1369;53.216;10.396;2023-12-22T12:51:27;5.00;99.90
2723;DHT22;1369;53.216;10.396;2023-12-22T12:53:53;4.90;99.90
2723;DHT22;1369;53.216;10.396;2023-12-22T12:56:18;4.90;99.90
2723;DHT22;1369;53.216;10.396;2023-12-22T12:58:44;4.90;99.90
2723;DHT22;1369;53.216;10.396;2023-12-22T13:01:10;4.90;99.90
2723;DHT22;1369;53.216;10.396;2023-12-22T13:03:55;5.00;99.90
2723;DHT22;1369;53.216;10.396;2023-12-22T13:06:21;5.00;99.90
2723;DHT22;1369;53.216;10.396;2023-12-22T13:08:53;5.00;99.90
2723;DHT22;1369;53.216;10.396;2023-12-22T13:11:45;5.00;99.90
2723;DHT22;1369;53.216;10.396;2023-12-22T13:14:12;5.00;99.90
2723;DHT22;1369;53.216;10.396;2023-12-22T13:16:47;5.00;99.90
2723;DHT22;1369;53.216;10.396;2023-12-22T13:19:13;5.00;99.90
2723;DHT22;1369;53.216;10.396;2023-12-22T13:21:39;5.10;99.90
2723;DHT22;1369;53.216;10.396;2023-12-22T13:24:09;5.10;99.90
2723;DHT22;1369;53.216;10.396;2023-12-22T13:26:38;5.10;99.90
2723;DHT22;1369;53.216;10.396;2023-12-22T13:29:07;5.10;99.90
2723;DHT22;1369;53.216;10.396;2023-12-22T13:31:33;5.00;99.90
2723;DHT22;1369;53.216;10.396;2023-12-22T13:34:00;5.00;99.90
2723;DHT22;1369;53.216;10.396;2023-12-22T13:36:26;5.00;99.90
2723;DHT22;1369;53.216;10.396;2023-12-22T13:38:52;5.00;99.90
2723;DHT22;1369;53.216;10.396;2023-12-22T13:41:18;5.00;99.90
2723;DHT22;1369;53.216;10.396;2023-12-22T13:43:44;5.00;99.90
2723;DHT22;1369;53.216;10.396;2023-12-22T13:46:12;5.00;99.90
2723;DHT22;1369;53.216;10.396;2023-12-22T13:48:37;5.00;99.90
2723;DHT22;1369;53.216;10.396;2023-12-22T13:51:04;5.00;99.90
2723;DHT22;1369;53.216;10.396;2023-12-22T13:53:29;5.00;99.90
2723;DHT22;1369;53.216;10.396;2023-12-22T13:55:59;4.90;99.90
2723;DHT22;1369;53.216;10.396;2023-12-22T13:58:25;4.90;99.90
2723;DHT22;1369;53.216;10.396;2023-12-22T14:00:52;4.90;99.90
2723;DHT22;1369;53.216;10.396;2023-12-22T14:03:19;4.90;99.90
2723;DHT22;1369;53.216;10.396;2023-12-22T14:05:52;4.90;99.90
2723;DHT22;1369;53.216;10.396;2023-12-22T14:08:19;4.90;99.90
2723;DHT22;1369;53.216;10.396;2023-12-22T14:10:46;4.90;99.90
2723;DHT22;1369;53.216;10.396;2023-12-22T14:13:12;4.90;99.90
2723;DHT22;1369;53.216;10.396;2023-12-22T14:15:38;4.90;99.90
2723;DHT22;1369;53.216;10.396;2023-12-22T14:18:04;4.90;99.90
2723;DHT22;1369;53.216;10.396;2023-12-22T14:20:30;4.90;99.90
2723;DHT22;1369;53.216;10.396;2023-12-22T14:22:55;4.90;99.90
2723;DHT22;1369;53.216;10.396;2023-12-22T14:25:21;4.90;99.90
2723;DHT22;1369;53.216;10.396;2023-12-22T14:27:47;4.90;99.90
2723;DHT22;1369;53.216;10.396;2023-12-22T14:30:13;5.00;99.90
2723;DHT22;1369;53.216;10.396;2023-12-22T14:32:39;4.90;99.90
2723;DHT22;1369;53.216;10.396;2023-12-22T14:35:05;5.00;99.90
2723;DHT22;1369;53.216;10.396;2023-12-22T14:37:30;5.00;99.90
2723;DHT22;1369;53.216;10.396;2023-12-22T14:39:56;5.00;99.90
2723;DHT22;1369;53.216;10.396;2023-12-22T14:42:22;5.00;99.90
2723;DHT22;1369;53.216;10.396;2023-12-22T14:44:48;5.00;99.90
2723;DHT22;1369;53.216;10.396;2023-12-22T14:47:14;5.00;99.90
2723;DHT22;1369;53.216;10.396;2023-12-22T14:49:39;5.10;99.90
2723;DHT22;1369;53.216;10.396;2023-12-22T14:52:05;5.10;99.90
2723;DHT22;1369;53.216;10.396;2023-12-22T14:54:31;5.00;99.90
2723;DHT22;1369;53.216;10.396;2023-12-22T14:56:56;4.90;99.90
2723;DHT22;1369;53.216;10.396;2023-12-22T14:59:22;4.80;99.90
2723;DHT22;1369;53.216;10.396;2023-12-22T15:01:48;4.60;99.90
2723;DHT22;1369;53.216;10.396;2023-12-22T15:04:13;4.70;99.90
2723;DHT22;1369;53.216;10.396;2023-12-22T15:06:40;4.60;99.90
2723;DHT22;1369;53.216;10.396;2023-12-22T15:09:06;4.50;99.90
2723;DHT22;1369;53.216;10.396;2023-12-22T15:11:32;4.50;99.90
2723;DHT22;1369;53.216;10.396;2023-12-22T15:13:58;4.50;99.90
2723;DHT22;1369;53.216;10.396;2023-12-22T15:16:24;4.50;99.90
2723;DHT22;1369;53.216;10.396;2023-12-22T15:18:50;4.50;99.90
2723;DHT22;1369;53.216;10.396;2023-12-22T15:21:22;4.50;99.90
2723;DHT22;1369;53.216;10.396;2023-12-22T15:23:50;4.50;99.90
2723;DHT22;1369;53.216;10.396;2023-12-22T15:26:25;4.50;99.90
2723;DHT22;1369;53.216;10.396;2023-12-22T15:28:52;4.50;99.90
2723;DHT22;1369;53.216;10.396;2023-12-22T15:31:18;4.60;99.90
2723;DHT22;1369;53.216;10.396;2023-12-22T15:33:43;4.60;99.90
2723;DHT22;1369;53.216;10.396;2023-12-22T15:36:09;4.60;99.90
2723;DHT22;1369;53.216;10.396;2023-12-22T15:38:35;4.60;99.90
2723;DHT22;1369;53.216;10.396;2023-12-22T15:41:01;4.60;99.90
2723;DHT22;1369;53.216;10.396;2023-12-22T15:43:27;4.60;99.90
2723;DHT22;1369;53.216;10.396;2023-12-22T15:45:53;4.60;99.90
2723;DHT22;1369;53.216;10.396;2023-12-22T15:48:18;4.60;99.90
2723;DHT22;1369;53.216;10.396;2023-12-22T15:50:44;4.60;99.90
2723;DHT22;1369;53.216;10.396;2023-12-22T15:53:12;4.60;99.90
2723;DHT22;1369;53.216;10.396;2023-12-22T15:55:37;4.60;99.90
2723;DHT22;1369;53.216;10.396;2023-12-22T15:58:03;4.60;99.90
2723;DHT22;1369;53.216;10.396;2023-12-22T16:00:29;4.60;99.90
2723;DHT22;1369;53.216;10.396;2023-12-22T16:02:54;4.60;99.90
2723;DHT22;1369;53.216;10.396;2023-12-22T16:05:20;4.50;99.90
2723;DHT22;1369;53.216;10.396;2023-12-22T16:07:46;4.60;99.90
2723;DHT22;1369;53.216;10.396;2023-12-22T16:10:11;4.50;99.90
2723;DHT22;1369;53.216;10.396;2023-12-22T16:12:38;4.50;99.90
2723;DHT22;1369;53.216;10.396;2023-12-22T16:15:07;4.40;99.90
2723;DHT22;1369;53.216;10.396;2023-12-22T16:17:33;4.40;99.90
2723;DHT22;1369;53.216;10.396;2023-12-22T16:19:59;4.30;99.90
2723;DHT22;1369;53.216;10.396;2023-12-22T16:22:25;4.30;99.90
2723;DHT22;1369;53.216;10.396;2023-12-22T16:24:50;4.30;99.90
2723;DHT22;1369;53.216;10.396;2023-12-22T16:27:16;4.30;99.90
2723;DHT22;1369;53.216;10.396;2023-12-22T16:29:42;4.30;99.90
2723;DHT22;1369;53.216;10.396;2023-12-22T16:32:08;4.30;99.90
2723;DHT22;1369;53.216;10.396;2023-12-22T16:34:36;4.40;99.90
2723;DHT22;1369;53.216;10.396;2023-12-22T16:37:02;4.40;99.90
2723;DHT22;1369;53.216;10.396;2023-12-22T16:39:28;4.40;99.90
2723;DHT22;1369;53.216;10.396;2023-12-22T16:41:53;4.40;99.90
2723;DHT22;1369;53.216;10.396;2023-12-22T16:44:19;4.40;99.90
2723;DHT22;1369;53.216;10.396;2023-12-22T16:46:47;4.40;99.90
2723;DHT22;1369;53.216;10.396;2023-12-22T16:49:13;4.40;99.90
2723;DHT22;1369;53.216;10.396;2023-12-22T16:51:39;3.10;99.90
2723;DHT22;1369;53.216;10.396;2023-12-22T16:54:05;4.40;99.90
2723;DHT22;1369;53.216;10.396;2023-12-22T16:56:31;4.40;99.90
2723;DHT22;1369;53.216;10.396;2023-12-22T16:58:56;4.40;99.90
2723;DHT22;1369;53.216;10.396;2023-12-22T17:01:22;4.40;99.90
2723;DHT22;1369;53.216;10.396;2023-12-22T17:03:48;4.40;99.90
2723;DHT22;1369;53.216;10.396;2023-12-22T17:06:17;4.30;99.90
2723;DHT22;1369;53.216;10.396;2023-12-22T17:08:42;4.30;99.90
2723;DHT22;1369;53.216;10.396;2023-12-22T17:11:08;4.30;99.90
2723;DHT22;1369;53.216;10.396;2023-12-22T17:13:34;4.30;99.90
2723;DHT22;1369;53.216;10.396;2023-12-22T17:15:59;4.30;99.90
2723;DHT22;1369;53.216;10.396;2023-12-22T17:18:25;4.30;99.90
2723;DHT22;1369;53.216;10.396;2023-12-22T17:20:51;4.30;99.90
2723;DHT22;1369;53.216;10.396;2023-12-22T17:23:16;4.30;99.90
2723;DHT22;1369;53.216;10.396;2023-12-22T17:25:42;4.30;99.90
2723;DHT22;1369;53.216;10.396;2023-12-22T17:28:07;4.30;99.90
2723;DHT22;1369;53.216;10.396;2023-12-22T17:30:33;4.30;99.90
2723;DHT22;1369;53.216;10.396;2023-12-22T17:32:59;4.30;99.90
2723;DHT22;1369;53.216;10.396;2023-12-22T17:35:25;4.30;99.90
2723;DHT22;1369;53.216;10.396;2023-12-22T17:37:51;4.30;99.90
2723;DHT22;1369;53.216;10.396;2023-12-22T17:40:16;4.30;99.90
2723;DHT22;1369;53.216;10.396;2023-12-22T17:42:43;4.30;99.90
2723;DHT22;1369;53.216;10.396;2023-12-22T17:45:09;4.30;99.90
2723;DHT22;1369;53.216;10.396;2023-12-22T17:47:35;4.30;99.90
2723;DHT22;1369;53.216;10.396;2023-12-22T17:50:01;4.30;99.90
2723;DHT22;1369;53.216;10.396;2023-12-22T17:52:26;4.40;99.90
2723;DHT22;1369;53.216;10.396;2023-12-22T17:54:52;4.40;99.90
2723;DHT22;1369;53.216;10.396;2023-12-22T17:57:17;4.40;99.90
2723;DHT22;1369;53.216;10.396;2023-12-22T17:59:43;4.40;99.90
2723;DHT22;1369;53.216;10.396;2023-12-22T18:02:09;4.40;99.90
2723;DHT22;1369;53.216;10.396;2023-12-22T18:04:41;4.40;99.90
2723;DHT22;1369;53.216;10.396;2023-12-22T18:07:06;4.40;99.90
2723;DHT22;1369;53.216;10.396;2023-12-22T18:09:32;4.40;99.90
2723;DHT22;1369;53.216;10.396;2023-12-22T18:11:58;4.40;99.90
2723;DHT22;1369;53.216;10.396;2023-12-22T18:14:23;4.40;99.90
2723;DHT22;1369;53.216;10.396;2023-12-22T18:16:49;4.40;99.90
2723;DHT22;1369;53.216;10.396;2023-12-22T18:19:15;4.40;99.90
2723;DHT22;1369;53.216;10.396;2023-12-22T18:21:40;4.40;99.90
2723;DHT22;1369;53.216;10.396;2023-12-22T18:24:06;4.40;99.90
2723;DHT22;1369;53.216;10.396;2023-12-22T18:26:32;4.40;99.90
2723;DHT22;1369;53.216;10.396;2023-12-22T18:28:57;4.40;99.90
2723;DHT22;1369;53.216;10.396;2023-12-22T18:31:23;4.40;99.90
2723;DHT22;1369;53.216;10.396;2023-12-22T18:33:49;4.30;99.90
2723;DHT22;1369;53.216;10.396;2023-12-22T18:36:15;4.30;99.90
2723;DHT22;1369;53.216;10.396;2023-12-22T18:38:40;4.30;99.90
2723;DHT22;1369;53.216;10.396;2023-12-22T18:41:08;4.30;99.90
2723;DHT22;1369;53.216;10.396;2023-12-22T18:43:34;4.30;99.90
2723;DHT22;1369;53.216;10.396;2023-12-22T18:46:00;4.30;99.90
2723;DHT22;1369;53.216;10.396;2023-12-22T18:48:26;4.20;99.90
2723;DHT22;1369;53.216;10.396;2023-12-22T18:50:51;4.20;99.90
2723;DHT22;1369;53.216;10.396;2023-12-22T18:53:18;4.20;99.90
2723;DHT22;1369;53.216;10.396;2023-12-22T18:55:44;4.10;99.90
2723;DHT22;1369;53.216;10.396;2023-12-22T18:58:09;4.10;99.90
2723;DHT22;1369;53.216;10.396;2023-12-22T19:00:35;4.10;99.90
2723;DHT22;1369;53.216;10.396;2023-12-22T19:03:01;4.10;99.90
2723;DHT22;1369;53.216;10.396;2023-12-22T19:05:26;4.10;99.90
2723;DHT22;1369;53.216;10.396;2023-12-22T19:07:52;4.10;99.90
2723;DHT22;1369;53.216;10.396;2023-12-22T19:10:18;4.10;99.90
2723;DHT22;1369;53.216;10.396;2023-12-22T19:12:43;4.10;99.90
2723;DHT22;1369;53.216;10.396;2023-12-22T19:15:10;4.10;99.90
2723;DHT22;1369;53.216;10.396;2023-12-22T19:17:35;4.10;99.90
2723;DHT22;1369;53.216;10.396;2023-12-22T19:20:04;4.10;99.90
2723;DHT22;1369;53.216;10.396;2023-12-22T19:22:30;4.10;99.90
2723;DHT22;1369;53.216;10.396;2023-12-22T19:24:56;4.20;99.90
2723;DHT22;1369;53.216;10.396;2023-12-22T19:27:23;4.20;99.90
2723;DHT22;1369;53.216;10.396;2023-12-22T19:29:48;4.20;99.90
2723;DHT22;1369;53.216;10.396;2023-12-22T19:32:14;4.20;99.90
2723;DHT22;1369;53.216;10.396;2023-12-22T19:34:41;4.20;99.90
2723;DHT22;1369;53.216;10.396;2023-12-22T19:37:07;4.20;99.90
2723;DHT22;1369;53.216;10.396;2023-12-22T19:39:33;4.30;99.90
2723;DHT22;1369;53.216;10.396;2023-12-22T19:41:59;4.20;99.90
2723;DHT22;1369;53.216;10.396;2023-12-22T19:44:24;4.30;99.90
2723;DHT22;1369;53.216;10.396;2023-12-22T19:46:50;4.30;99.90
2723;DHT22;1369;53.216;10.396;2023-12-22T19:49:16;4.20;99.90
2723;DHT22;1369;53.216;10.396;2023-12-22T19:51:41;4.20;99.90
2723;DHT22;1369;53.216;10.396;2023-12-22T19:54:08;4.20;99.90
2723;DHT22;1369;53.216;10.396;2023-12-22T19:56:34;4.20;99.90
2723;DHT22;1369;53.216;10.396;2023-12-22T19:58:59;4.20;99.90
2723;DHT22;1369;53.216;10.396;2023-12-22T20:01:25;4.20;99.90
2723;DHT22;1369;53.216;10.396;2023-12-22T20:03:51;4.20;99.90
2723;DHT22;1369;53.216;10.396;2023-12-22T20:06:17;4.20;99.90
2723;DHT22;1369;53.216;10.396;2023-12-22T20:08:42;4.20;99.90
2723;DHT22;1369;53.216;10.396;2023-12-22T20:11:08;4.20;99.90
2723;DHT22;1369;53.216;10.396;2023-12-22T20:13:34;4.20;99.90
2723;DHT22;1369;53.216;10.396;2023-12-22T20:16:01;4.20;99.90
2723;DHT22;1369;53.216;10.396;2023-12-22T20:18:27;4.20;99.90
2723;DHT22;1369;53.216;10.396;2023-12-22T20:20:53;4.20;99.90
2723;DHT22;1369;53.216;10.396;2023-12-22T20:23:18;4.30;99.90
2723;DHT22;1369;53.216;10.396;2023-12-22T20:25:44;4.30;99.90
2723;DHT22;1369;53.216;10.396;2023-12-22T20:28:10;4.20;99.90
2723;DHT22;1369;53.216;10.396;2023-12-22T20:30:35;4.20;99.90
2723;DHT22;1369;53.216;10.396;2023-12-22T20:33:01;4.20;99.90
2723;DHT22;1369;53.216;10.396;2023-12-22T20:35:28;4.10;99.90
2723;DHT22;1369;53.216;10.396;2023-12-22T20:37:53;4.10;99.90
2723;DHT22;1369;53.216;10.396;2023-12-22T20:40:19;4.10;99.90
2723;DHT22;1369;53.216;10.396;2023-12-22T20:42:45;4.10;99.90
2723;DHT22;1369;53.216;10.396;2023-12-22T20:45:10;4.10;99.90
2723;DHT22;1369;53.216;10.396;2023-12-22T20:47:36;4.10;99.90
2723;DHT22;1369;53.216;10.396;2023-12-22T20:50:02;4.10;99.90
2723;DHT22;1369;53.216;10.396;2023-12-22T20:52:28;4.10;99.90
2723;DHT22;1369;53.216;10.396;2023-12-22T20:54:54;4.10;99.90
2723;DHT22;1369;53.216;10.396;2023-12-22T20:57:20;4.20;99.90
2723;DHT22;1369;53.216;10.396;2023-12-22T20:59:46;4.20;99.90
2723;DHT22;1369;53.216;10.396;2023-12-22T21:02:11;4.20;99.90
2723;DHT22;1369;53.216;10.396;2023-12-22T21:04:37;4.10;99.90
2723;DHT22;1369;53.216;10.396;2023-12-22T21:07:06;4.00;99.90
2723;DHT22;1369;53.216;10.396;2023-12-22T21:09:34;4.00;99.90
2723;DHT22;1369;53.216;10.396;2023-12-22T21:12:00;3.90;99.90
2723;DHT22;1369;53.216;10.396;2023-12-22T21:14:27;3.80;99.90
2723;DHT22;1369;53.216;10.396;2023-12-22T21:16:53;3.80;99.90
2723;DHT22;1369;53.216;10.396;2023-12-22T21:19:19;3.80;99.90
2723;DHT22;1369;53.216;10.396;2023-12-22T21:21:45;3.70;99.90
2723;DHT22;1369;53.216;10.396;2023-12-22T21:24:12;3.80;99.90
2723;DHT22;1369;53.216;10.396;2023-12-22T21:26:38;3.80;99.90
2723;DHT22;1369;53.216;10.396;2023-12-22T21:29:04;3.80;99.90
2723;DHT22;1369;53.216;10.396;2023-12-22T21:31:30;3.80;99.90
2723;DHT22;1369;53.216;10.396;2023-12-22T21:33:55;3.70;99.90
2723;DHT22;1369;53.216;10.396;2023-12-22T21:36:22;3.80;99.90
2723;DHT22;1369;53.216;10.396;2023-12-22T21:38:49;3.80;99.90
2723;DHT22;1369;53.216;10.396;2023-12-22T21:41:16;3.90;99.90
2723;DHT22;1369;53.216;10.396;2023-12-22T21:43:42;3.90;99.90
2723;DHT22;1369;53.216;10.396;2023-12-22T21:46:09;4.00;99.90
2723;DHT22;1369;53.216;10.396;2023-12-22T21:48:34;4.00;99.90
2723;DHT22;1369;53.216;10.396;2023-12-22T21:51:03;4.10;99.90
2723;DHT22;1369;53.216;10.396;2023-12-22T21:53:29;4.00;99.90
2723;DHT22;1369;53.216;10.396;2023-12-22T21:55:55;4.10;99.90
2723;DHT22;1369;53.216;10.396;2023-12-22T21:58:21;4.10;99.90
2723;DHT22;1369;53.216;10.396;2023-12-22T22:00:47;4.10;99.90
2723;DHT22;1369;53.216;10.396;2023-12-22T22:03:12;4.10;99.90
2723;DHT22;1369;53.216;10.396;2023-12-22T22:05:38;4.20;99.90
2723;DHT22;1369;53.216;10.396;2023-12-22T22:08:05;4.20;99.90
2723;DHT22;1369;53.216;10.396;2023-12-22T22:10:31;4.20;99.90
2723;DHT22;1369;53.216;10.396;2023-12-22T22:12:56;4.10;99.90
2723;DHT22;1369;53.216;10.396;2023-12-22T22:15:22;4.10;99.90
2723;DHT22;1369;53.216;10.396;2023-12-22T22:17:48;4.10;99.90
2723;DHT22;1369;53.216;10.396;2023-12-22T22:20:14;4.00;99.90
2723;DHT22;1369;53.216;10.396;2023-12-22T22:22:39;4.00;99.90
2723;DHT22;1369;53.216;10.396;2023-12-22T22:25:05;4.00;99.90
2723;DHT22;1369;53.216;10.396;2023-12-22T22:27:31;4.00;99.90
2723;DHT22;1369;53.216;10.396;2023-12-22T22:29:57;4.00;99.90
2723;DHT22;1369;53.216;10.396;2023-12-22T22:32:23;4.00;99.90
2723;DHT22;1369;53.216;10.396;2023-12-22T22:34:49;4.00;99.90
2723;DHT22;1369;53.216;10.396;2023-12-22T22:37:15;3.90;99.90
2723;DHT22;1369;53.216;10.396;2023-12-22T22:39:42;4.00;99.90
2723;DHT22;1369;53.216;10.396;2023-12-22T22:42:07;4.00;99.90
2723;DHT22;1369;53.216;10.396;2023-12-22T22:44:33;3.90;99.90
2723;DHT22;1369;53.216;10.396;2023-12-22T22:47:00;3.80;99.90
2723;DHT22;1369;53.216;10.396;2023-12-22T22:49:26;3.80;99.90
2723;DHT22;1369;53.216;10.396;2023-12-22T22:51:51;3.60;99.90
2723;DHT22;1369;53.216;10.396;2023-12-22T22:54:17;3.60;99.90
2723;DHT22;1369;53.216;10.396;2023-12-22T22:56:43;3.50;99.90
2723;DHT22;1369;53.216;10.396;2023-12-22T22:59:08;3.50;99.90
2723;DHT22;1369;53.216;10.396;2023-12-22T23:01:34;3.40;99.90
2723;DHT22;1369;53.216;10.396;2023-12-22T23:04:00;3.40;99.90
2723;DHT22;1369;53.216;10.396;2023-12-22T23:06:26;3.40;99.90
2723;DHT22;1369;53.216;10.396;2023-12-22T23:08:57;3.40;99.90
2723;DHT22;1369;53.216;10.396;2023-12-22T23:11:25;3.50;99.90
2723;DHT22;1369;53.216;10.396;2023-12-22T23:13:51;3.50;99.90
2723;DHT22;1369;53.216;10.396;2023-12-22T23:16:17;3.50;99.90
2723;DHT22;1369;53.216;10.396;2023-12-22T23:18:43;3.50;99.90
2723;DHT22;1369;53.216;10.396;2023-12-22T23:21:09;3.50;99.90
2723;DHT22;1369;53.216;10.396;2023-12-22T23:23:35;3.50;99.90